»·PEaware :: AAL1945 KSJC-KRNO

AAL1945 :: KSJC-KRNO

FLIGHT INFORMATION

Flight Status: Arrived
Operator:
American Airlines
More flights by this operator :: More flights under this callsign
Pilot: Will W. (20406)
Aircraft: AIRBUS A320
(A320)
More flights by this aircraft type
Origin: KSJC Mineta San Jose Intl
United States
Destination: KRNO Reno/Tahoe Intl
United States
More flights between these airports :: More routes between these airports
Route: +ALMDN4 ORRCA HOBOA WALAR
File this flight plan on PilotEdge
Remarks: RMK / SIMBRIEF
Altitude:
(Current/Filed)
27,000ft
Speed:
(Current/Filed)
438kts
Departed: 15-May-19 11:08 AM
Arrived: 15-May-19 11:43 AM
Distance/Time
Traveled:
164nm/0:35
Distance/Time
To Go:
Arrived

Flight Plot

Page will automatically refresh every two minutes.


Map Options




Map Legend


Flown Route
Filed Route
Departure Airport
Arrival Airport
Navaid (VOR, NDB)
Fix

Horizontal Profiles

Position Reports

Time Latitude Longitude Heading Altitude Ground
Speed
15-May-19 10:38 37.366801 -121.927438 48 71ft 0kts
15-May-19 10:39 37.366801 -121.927438 48 71ft 0kts
15-May-19 10:40 37.366801 -121.927438 48 71ft 0kts
15-May-19 10:41 37.366801 -121.927438 48 71ft 0kts
15-May-19 10:42 37.366801 -121.927438 48 71ft 0kts
15-May-19 10:43 37.366801 -121.927438 48 71ft 0kts
15-May-19 10:44 37.366801 -121.927438 48 71ft 0kts
15-May-19 10:45 37.366801 -121.927438 48 71ft 0kts
15-May-19 10:46 37.366801 -121.927438 48 71ft 0kts
15-May-19 10:47 37.366801 -121.927438 48 71ft 0kts
15-May-19 10:48 37.366801 -121.927438 48 71ft 0kts
15-May-19 10:49 37.366801 -121.927438 48 71ft 0kts
15-May-19 10:50 37.366801 -121.927438 48 71ft 0kts
15-May-19 10:51 37.366801 -121.927438 48 71ft 0kts
15-May-19 10:52 37.366801 -121.927438 48 71ft 0kts
15-May-19 10:53 37.366801 -121.927438 48 71ft 0kts
15-May-19 10:54 37.366801 -121.927438 48 71ft 0kts
15-May-19 10:55 37.366801 -121.927438 48 71ft 0kts
15-May-19 10:56 37.366558 -121.927779 47 71ft 2kts
15-May-19 10:57 37.366246 -121.928031 316 71ft 1kts
15-May-19 10:58 37.366189 -121.927949 317 71ft 0kts
15-May-19 10:59 37.366189 -121.927949 317 71ft 0kts
15-May-19 11:00 37.366342 -121.928124 317 71ft 3kts
15-May-19 11:01 37.367411 -121.929321 318 71ft 6kts
15-May-19 11:02 37.369100 -121.931139 318 71ft 9kts
15-May-19 11:03 37.371236 -121.933486 318 71ft 11kts
15-May-19 11:04 37.373358 -121.936779 313 71ft 13kts
15-May-19 11:05 37.375175 -121.938835 304 71ft 0kts
15-May-19 11:06 37.374638 -121.939759 154 71ft 10kts
15-May-19 11:07 37.361273 -121.925151 139 342ft 179kts
15-May-19 11:08 37.318529 -121.877887 137 3332ft 250kts
15-May-19 11:09 37.322673 -121.796482 54 7018ft 288kts
15-May-19 11:10 37.389820 -121.755419 358 10172ft 317kts
15-May-19 11:11 37.484854 -121.751157 5 11929ft 383kts
15-May-19 11:12 37.591354 -121.735233 5 14547ft 401kts
15-May-19 11:13 37.702017 -121.714176 8 16893ft 417kts
15-May-19 11:14 37.816724 -121.689249 8 18864ft 428kts
15-May-19 11:15 37.932614 -121.663995 8 18965ft 430kts
15-May-19 11:16 38.049118 -121.638527 8 18959ft 430kts
15-May-19 11:17 38.165266 -121.613061 8 19660ft 437kts
15-May-19 11:18 38.282772 -121.587158 8 21475ft 449kts
15-May-19 11:19 38.402625 -121.560609 9 23093ft 462kts
15-May-19 11:20 38.506650 -121.471491 46 24568ft 472kts
15-May-19 11:21 38.598381 -121.354148 46 25972ft 483kts
15-May-19 11:22 38.682415 -121.246324 47 26958ft 486kts
15-May-19 11:23 38.776777 -121.124918 47 26985ft 486kts
15-May-19 11:24 38.871857 -121.002074 48 26993ft 485kts
15-May-19 11:25 38.966529 -120.879277 49 27010ft 483kts
15-May-19 11:26 39.059885 -120.757804 49 27023ft 460kts
15-May-19 11:27 39.145689 -120.645842 50 25543ft 412kts
15-May-19 11:28 39.225239 -120.541236 49 21825ft 423kts
15-May-19 11:29 39.304390 -120.437036 48 18766ft 394kts
15-May-19 11:30 39.376373 -120.342083 49 16773ft 342kts
15-May-19 11:31 39.440094 -120.249765 63 16050ft 354kts
15-May-19 11:32 39.435995 -120.135975 114 14733ft 318kts
15-May-19 11:33 39.402218 -120.032798 143 12981ft 299kts
15-May-19 11:34 39.332073 -119.979341 154 12028ft 295kts
15-May-19 11:35 39.260899 -119.927672 154 12019ft 293kts
15-May-19 11:36 39.191001 -119.875184 142 11201ft 295kts
15-May-19 11:37 39.191024 -119.771725 43 11021ft 334kts
15-May-19 11:38 39.274205 -119.768840 351 10053ft 306kts
15-May-19 11:39 39.353952 -119.769606 356 8246ft 262kts
15-May-19 11:40 39.421688 -119.769255 356 6628ft 211kts
15-May-19 11:41 39.475008 -119.769052 337 4763ft 188kts
15-May-19 11:42 39.509075 -119.769259 358 4414ft 37kts
15-May-19 11:43 39.511013 -119.770406 271 4417ft 3kts

Navigation Log

Ident Type
Flight plan parsing failed, navigation log unavailable